Bethalto, Illinois
Current Conditions -  °F | °C
As of 10:15 PM on Saturday 25 Oct 2014 (Local Time) from KALN Reporting Station
Clear Clear  
Wind Chill: 59°   Ceiling: Unl
Heat Index: 59°   Visibility: 10mi
Dew Point: 51°   Wind: 0mph
Humidity: 75%   Direction: NA
Pressure: 30.02"   Gusts: NA
Location:  38.91°N, 90.04°W
Report Text: KALN 260315Z AUTO 00000KT 10SM CLR 15/11 A3002 RMK AO2 T01500106
Loading
Personal Weather Stations






























Interactive Weather Map New forecast layout! Learn more

10-Day Weather Forecast

Advertisements
Track Severe Weather on mobile